sensor_id;sensor_type;location;lat;lon;timestamp;temperature;humidity
27423;DHT22;14878;50.778;0.258;2022-12-05T13:42:25;6.60;99.90
27423;DHT22;14878;50.778;0.258;2022-12-05T13:43:28;6.60;99.90
27423;DHT22;14878;50.778;0.258;2022-12-05T13:44:54;6.70;99.90
27423;DHT22;14878;50.778;0.258;2022-12-05T13:46:04;6.70;99.90
27423;DHT22;14878;50.778;0.258;2022-12-05T13:47:16;6.70;99.90
27423;DHT22;14878;50.778;0.258;2022-12-05T13:48:24;6.80;99.90
27423;DHT22;14878;50.778;0.258;2022-12-05T13:49:37;6.80;99.90
27423;DHT22;14878;50.778;0.258;2022-12-05T13:50:53;6.80;99.90
27423;DHT22;14878;50.778;0.258;2022-12-05T13:52:07;6.90;99.90
27423;DHT22;14878;50.778;0.258;2022-12-05T13:54:31;6.90;99.90
27423;DHT22;14878;50.778;0.258;2022-12-05T13:55:55;6.90;99.90
27423;DHT22;14878;50.778;0.258;2022-12-05T13:56:58;6.90;99.90
27423;DHT22;14878;50.778;0.258;2022-12-05T13:58:32;7.00;99.90
27423;DHT22;14878;50.778;0.258;2022-12-05T14:04:48;7.00;99.90
27423;DHT22;14878;50.778;0.258;2022-12-05T14:05:53;7.00;99.90
27423;DHT22;14878;50.778;0.258;2022-12-05T14:06:56;7.00;99.90
27423;DHT22;14878;50.778;0.258;2022-12-05T14:07:58;7.00;99.90
27423;DHT22;14878;50.778;0.258;2022-12-05T14:08:59;7.00;99.90
27423;DHT22;14878;50.778;0.258;2022-12-05T14:09:59;7.10;99.90
27423;DHT22;14878;50.778;0.258;2022-12-05T14:15:55;7.10;99.90
27423;DHT22;14878;50.778;0.258;2022-12-05T14:17:14;7.10;99.90
27423;DHT22;14878;50.778;0.258;2022-12-05T14:18:48;7.10;99.90
27423;DHT22;14878;50.778;0.258;2022-12-05T14:25:26;7.10;99.90
27423;DHT22;14878;50.778;0.258;2022-12-05T14:30:46;7.20;99.90
27423;DHT22;14878;50.778;0.258;2022-12-05T14:33:16;7.30;99.90
27423;DHT22;14878;50.778;0.258;2022-12-05T14:34:30;7.30;99.90
27423;DHT22;14878;50.778;0.258;2022-12-05T14:35:45;7.20;99.90
27423;DHT22;14878;50.778;0.258;2022-12-05T14:37:36;7.30;99.90
27423;DHT22;14878;50.778;0.258;2022-12-05T14:38:29;7.30;99.90
27423;DHT22;14878;50.778;0.258;2022-12-05T14:39:54;8.30;99.90
27423;DHT22;14878;50.778;0.258;2022-12-05T14:40:55;7.30;99.90
27423;DHT22;14878;50.778;0.258;2022-12-05T14:42:00;7.30;99.90
27423;DHT22;14878;50.778;0.258;2022-12-05T14:43:06;7.50;99.90
27423;DHT22;14878;50.778;0.258;2022-12-05T14:44:17;7.50;99.90
27423;DHT22;14878;50.778;0.258;2022-12-05T14:46:31;7.50;99.90
27423;DHT22;14878;50.778;0.258;2022-12-05T14:47:33;7.50;99.90
27423;DHT22;14878;50.778;0.258;2022-12-05T14:48:38;7.50;99.90
27423;DHT22;14878;50.778;0.258;2022-12-05T14:49:58;7.60;99.90
27423;DHT22;14878;50.778;0.258;2022-12-05T14:51:01;7.60;99.90
27423;DHT22;14878;50.778;0.258;2022-12-05T14:52:24;7.70;99.90
27423;DHT22;14878;50.778;0.258;2022-12-05T14:53:38;7.60;99.90
27423;DHT22;14878;50.778;0.258;2022-12-05T14:54:41;7.60;99.90
27423;DHT22;14878;50.778;0.258;2022-12-05T14:56:16;7.60;99.90
27423;DHT22;14878;50.778;0.258;2022-12-05T14:57:18;7.70;99.90
27423;DHT22;14878;50.778;0.258;2022-12-05T14:58:39;7.70;99.90
27423;DHT22;14878;50.778;0.258;2022-12-05T14:59:45;7.70;99.90
27423;DHT22;14878;50.778;0.258;2022-12-05T15:01:14;7.70;99.90
27423;DHT22;14878;50.778;0.258;2022-12-05T15:02:42;7.70;99.90
27423;DHT22;14878;50.778;0.258;2022-12-05T15:06:21;7.80;99.90
27423;DHT22;14878;50.778;0.258;2022-12-05T15:07:38;7.70;99.90
27423;DHT22;14878;50.778;0.258;2022-12-05T15:08:45;7.70;99.90
27423;DHT22;14878;50.778;0.258;2022-12-05T15:09:59;7.80;99.90
27423;DHT22;14878;50.778;0.258;2022-12-05T15:11:00;7.80;99.90
27423;DHT22;14878;50.778;0.258;2022-12-05T15:12:05;7.90;99.90
27423;DHT22;14878;50.778;0.258;2022-12-05T15:13:14;7.80;99.90
27423;DHT22;14878;50.778;0.258;2022-12-05T15:14:22;7.90;99.90
27423;DHT22;14878;50.778;0.258;2022-12-05T15:16:35;7.80;99.90
27423;DHT22;14878;50.778;0.258;2022-12-05T15:17:44;7.80;99.90
27423;DHT22;14878;50.778;0.258;2022-12-05T15:18:48;7.80;99.90
27423;DHT22;14878;50.778;0.258;2022-12-05T15:20:13;7.80;99.90
27423;DHT22;14878;50.778;0.258;2022-12-05T15:21:39;7.80;99.90
27423;DHT22;14878;50.778;0.258;2022-12-05T15:22:40;7.80;99.90
27423;DHT22;14878;50.778;0.258;2022-12-05T15:24:00;7.80;99.90
27423;DHT22;14878;50.778;0.258;2022-12-05T15:25:22;7.70;99.90
27423;DHT22;14878;50.778;0.258;2022-12-05T15:27:37;7.70;99.90
27423;DHT22;14878;50.778;0.258;2022-12-05T15:28:38;7.80;99.90
27423;DHT22;14878;50.778;0.258;2022-12-05T15:29:40;7.70;99.90
27423;DHT22;14878;50.778;0.258;2022-12-05T15:30:40;7.70;99.90
27423;DHT22;14878;50.778;0.258;2022-12-05T15:31:52;7.80;99.90
27423;DHT22;14878;50.778;0.258;2022-12-05T15:32:53;7.70;99.90
27423;DHT22;14878;50.778;0.258;2022-12-05T15:33:57;7.60;99.90
27423;DHT22;14878;50.778;0.258;2022-12-05T15:35:05;7.70;99.90
27423;DHT22;14878;50.778;0.258;2022-12-05T15:36:08;7.70;99.90
27423;DHT22;14878;50.778;0.258;2022-12-05T15:38:23;7.70;99.90
27423;DHT22;14878;50.778;0.258;2022-12-05T15:39:26;7.70;99.90
27423;DHT22;14878;50.778;0.258;2022-12-05T15:40:32;7.70;99.90
27423;DHT22;14878;50.778;0.258;2022-12-05T15:41:36;7.70;99.90
27423;DHT22;14878;50.778;0.258;2022-12-05T15:42:56;7.70;99.90
27423;DHT22;14878;50.778;0.258;2022-12-05T15:43:57;5.80;99.90
27423;DHT22;14878;50.778;0.258;2022-12-05T15:47:24;7.60;99.90
27423;DHT22;14878;50.778;0.258;2022-12-05T15:48:25;7.60;99.90
27423;DHT22;14878;50.778;0.258;2022-12-05T15:49:27;7.50;99.90
27423;DHT22;14878;50.778;0.258;2022-12-05T15:50:42;7.50;99.90
27423;DHT22;14878;50.778;0.258;2022-12-05T15:51:45;7.50;99.90
27423;DHT22;14878;50.778;0.258;2022-12-05T15:54:26;7.60;99.90
27423;DHT22;14878;50.778;0.258;2022-12-05T15:55:34;7.50;99.90
27423;DHT22;14878;50.778;0.258;2022-12-05T15:56:48;7.70;99.90
27423;DHT22;14878;50.778;0.258;2022-12-05T15:58:37;7.50;99.90
27423;DHT22;14878;50.778;0.258;2022-12-05T16:00:18;7.50;99.90
27423;DHT22;14878;50.778;0.258;2022-12-05T16:01:23;7.50;99.90
27423;DHT22;14878;50.778;0.258;2022-12-05T16:04:59;7.50;99.90
27423;DHT22;14878;50.778;0.258;2022-12-05T16:07:39;7.50;99.90
27423;DHT22;14878;50.778;0.258;2022-12-05T16:08:46;7.40;99.90
27423;DHT22;14878;50.778;0.258;2022-12-05T16:09:47;7.50;99.90
27423;DHT22;14878;50.778;0.258;2022-12-05T16:10:48;7.40;99.90
27423;DHT22;14878;50.778;0.258;2022-12-05T16:12:17;7.40;99.90
27423;DHT22;14878;50.778;0.258;2022-12-05T16:13:21;7.30;99.90
27423;DHT22;14878;50.778;0.258;2022-12-05T16:14:25;7.30;99.90
27423;DHT22;14878;50.778;0.258;2022-12-05T16:15:28;7.30;99.90
27423;DHT22;14878;50.778;0.258;2022-12-05T16:16:32;7.30;99.90
27423;DHT22;14878;50.778;0.258;2022-12-05T16:17:41;7.30;99.90
27423;DHT22;14878;50.778;0.258;2022-12-05T16:18:53;7.40;99.90
27423;DHT22;14878;50.778;0.258;2022-12-05T16:20:19;7.40;99.90
27423;DHT22;14878;50.778;0.258;2022-12-05T16:21:39;7.30;99.90
27423;DHT22;14878;50.778;0.258;2022-12-05T16:22:46;7.40;99.90
27423;DHT22;14878;50.778;0.258;2022-12-05T16:23:47;7.40;99.90
27423;DHT22;14878;50.778;0.258;2022-12-05T16:24:55;7.40;99.90
27423;DHT22;14878;50.778;0.258;2022-12-05T16:26:18;7.40;99.90
27423;DHT22;14878;50.778;0.258;2022-12-05T16:27:32;7.40;99.90
27423;DHT22;14878;50.778;0.258;2022-12-05T16:28:33;7.40;99.90
27423;DHT22;14878;50.778;0.258;2022-12-05T16:29:34;7.40;99.90
27423;DHT22;14878;50.778;0.258;2022-12-05T16:30:35;7.40;99.90
27423;DHT22;14878;50.778;0.258;2022-12-05T16:31:37;7.40;99.90
27423;DHT22;14878;50.778;0.258;2022-12-05T16:32:39;7.40;99.90
27423;DHT22;14878;50.778;0.258;2022-12-05T16:33:40;7.40;99.90
27423;DHT22;14878;50.778;0.258;2022-12-05T16:34:41;7.40;99.90
27423;DHT22;14878;50.778;0.258;2022-12-05T16:35:43;7.30;99.90
27423;DHT22;14878;50.778;0.258;2022-12-05T16:36:49;7.40;99.90
27423;DHT22;14878;50.778;0.258;2022-12-05T16:39:17;7.40;99.90
27423;DHT22;14878;50.778;0.258;2022-12-05T16:40:20;7.50;99.90
27423;DHT22;14878;50.778;0.258;2022-12-05T16:41:31;7.60;99.90
27423;DHT22;14878;50.778;0.258;2022-12-05T16:42:32;7.50;99.90
27423;DHT22;14878;50.778;0.258;2022-12-05T16:44:59;7.60;99.90
27423;DHT22;14878;50.778;0.258;2022-12-05T16:46:39;7.50;99.90
27423;DHT22;14878;50.778;0.258;2022-12-05T16:47:53;7.50;99.90
27423;DHT22;14878;50.778;0.258;2022-12-05T16:49:15;7.50;99.90
27423;DHT22;14878;50.778;0.258;2022-12-05T16:50:33;7.50;99.90
27423;DHT22;14878;50.778;0.258;2022-12-05T16:51:41;7.50;99.90
27423;DHT22;14878;50.778;0.258;2022-12-05T16:52:43;7.40;99.90
27423;DHT22;14878;50.778;0.258;2022-12-05T16:53:54;7.40;99.90
27423;DHT22;14878;50.778;0.258;2022-12-05T16:54:55;7.50;99.90
27423;DHT22;14878;50.778;0.258;2022-12-05T16:55:57;7.40;99.90
27423;DHT22;14878;50.778;0.258;2022-12-05T16:56:59;7.40;99.90
27423;DHT22;14878;50.778;0.258;2022-12-05T16:58:01;7.40;99.90
27423;DHT22;14878;50.778;0.258;2022-12-05T16:59:06;7.40;99.90
27423;DHT22;14878;50.778;0.258;2022-12-05T17:00:13;7.40;99.90
27423;DHT22;14878;50.778;0.258;2022-12-05T17:01:25;7.40;99.90
27423;DHT22;14878;50.778;0.258;2022-12-05T17:02:26;7.40;99.90
27423;DHT22;14878;50.778;0.258;2022-12-05T17:03:27;7.40;99.90
27423;DHT22;14878;50.778;0.258;2022-12-05T17:04:28;7.40;99.90
27423;DHT22;14878;50.778;0.258;2022-12-05T17:05:29;7.50;99.90
27423;DHT22;14878;50.778;0.258;2022-12-05T17:06:29;7.50;99.90
27423;DHT22;14878;50.778;0.258;2022-12-05T17:07:30;7.50;99.90
27423;DHT22;14878;50.778;0.258;2022-12-05T17:08:31;7.60;99.90
27423;DHT22;14878;50.778;0.258;2022-12-05T17:09:31;7.50;99.90
27423;DHT22;14878;50.778;0.258;2022-12-05T17:10:32;7.60;99.90
27423;DHT22;14878;50.778;0.258;2022-12-05T17:11:34;7.50;99.90
27423;DHT22;14878;50.778;0.258;2022-12-05T17:12:36;7.50;99.90
27423;DHT22;14878;50.778;0.258;2022-12-05T17:13:37;7.50;99.90
27423;DHT22;14878;50.778;0.258;2022-12-05T17:14:37;7.50;99.90
27423;DHT22;14878;50.778;0.258;2022-12-05T17:15:38;7.50;99.90
27423;DHT22;14878;50.778;0.258;2022-12-05T17:16:39;7.40;99.90
27423;DHT22;14878;50.778;0.258;2022-12-05T17:17:40;7.50;99.90
27423;DHT22;14878;50.778;0.258;2022-12-05T17:18:41;7.50;99.90
27423;DHT22;14878;50.778;0.258;2022-12-05T17:19:42;7.50;99.90
27423;DHT22;14878;50.778;0.258;2022-12-05T17:20:46;7.40;99.90
27423;DHT22;14878;50.778;0.258;2022-12-05T17:21:48;7.50;99.90
27423;DHT22;14878;50.778;0.258;2022-12-05T17:22:48;7.50;99.90
27423;DHT22;14878;50.778;0.258;2022-12-05T17:23:49;7.60;99.90
27423;DHT22;14878;50.778;0.258;2022-12-05T17:24:50;8.50;99.90
27423;DHT22;14878;50.778;0.258;2022-12-05T17:25:53;7.60;99.90
27423;DHT22;14878;50.778;0.258;2022-12-05T17:26:54;7.50;99.90
27423;DHT22;14878;50.778;0.258;2022-12-05T17:27:54;7.50;99.90
27423;DHT22;14878;50.778;0.258;2022-12-05T17:28:55;7.50;99.90
27423;DHT22;14878;50.778;0.258;2022-12-05T17:29:56;7.60;99.90
27423;DHT22;14878;50.778;0.258;2022-12-05T17:30:57;7.60;99.90
27423;DHT22;14878;50.778;0.258;2022-12-05T17:31:57;7.60;99.90
27423;DHT22;14878;50.778;0.258;2022-12-05T17:32:58;7.70;99.90
27423;DHT22;14878;50.778;0.258;2022-12-05T17:33:59;7.60;99.90
27423;DHT22;14878;50.778;0.258;2022-12-05T17:34:59;7.60;99.90
27423;DHT22;14878;50.778;0.258;2022-12-05T17:36:00;7.60;99.90
27423;DHT22;14878;50.778;0.258;2022-12-05T17:37:01;7.60;99.90
27423;DHT22;14878;50.778;0.258;2022-12-05T17:38:02;7.60;99.90
27423;DHT22;14878;50.778;0.258;2022-12-05T17:39:03;7.60;99.90
27423;DHT22;14878;50.778;0.258;2022-12-05T17:40:05;7.60;99.90
27423;DHT22;14878;50.778;0.258;2022-12-05T17:41:06;7.60;99.90
27423;DHT22;14878;50.778;0.258;2022-12-05T17:42:07;7.60;99.90
27423;DHT22;14878;50.778;0.258;2022-12-05T17:43:12;7.60;99.90
27423;DHT22;14878;50.778;0.258;2022-12-05T17:44:14;7.60;99.90
27423;DHT22;14878;50.778;0.258;2022-12-05T17:45:15;7.60;99.90
27423;DHT22;14878;50.778;0.258;2022-12-05T17:46:18;7.70;99.90
27423;DHT22;14878;50.778;0.258;2022-12-05T17:47:19;7.60;99.90
27423;DHT22;14878;50.778;0.258;2022-12-05T17:48:20;7.60;99.90
27423;DHT22;14878;50.778;0.258;2022-12-05T17:49:20;7.60;99.90
27423;DHT22;14878;50.778;0.258;2022-12-05T17:50:23;7.60;99.90
27423;DHT22;14878;50.778;0.258;2022-12-05T17:51:24;7.60;99.90
27423;DHT22;14878;50.778;0.258;2022-12-05T17:52:27;7.60;99.90
27423;DHT22;14878;50.778;0.258;2022-12-05T17:53:27;7.50;99.90
27423;DHT22;14878;50.778;0.258;2022-12-05T17:54:29;7.50;99.90
27423;DHT22;14878;50.778;0.258;2022-12-05T17:55:29;7.50;99.90
27423;DHT22;14878;50.778;0.258;2022-12-05T17:56:31;7.50;99.90
27423;DHT22;14878;50.778;0.258;2022-12-05T17:57:31;7.50;99.90
27423;DHT22;14878;50.778;0.258;2022-12-05T17:58:32;7.60;99.90
27423;DHT22;14878;50.778;0.258;2022-12-05T17:59:33;7.50;99.90
27423;DHT22;14878;50.778;0.258;2022-12-05T18:00:34;7.50;99.90
27423;DHT22;14878;50.778;0.258;2022-12-05T18:01:34;7.50;99.90
27423;DHT22;14878;50.778;0.258;2022-12-05T18:02:35;7.50;99.90
27423;DHT22;14878;50.778;0.258;2022-12-05T18:03:36;7.50;99.90
27423;DHT22;14878;50.778;0.258;2022-12-05T18:04:37;7.60;99.90
27423;DHT22;14878;50.778;0.258;2022-12-05T18:05:37;7.50;99.90
27423;DHT22;14878;50.778;0.258;2022-12-05T18:06:38;7.50;99.90
27423;DHT22;14878;50.778;0.258;2022-12-05T18:07:40;7.60;99.90
27423;DHT22;14878;50.778;0.258;2022-12-05T18:08:42;7.60;99.90
27423;DHT22;14878;50.778;0.258;2022-12-05T18:09:44;7.60;99.90
27423;DHT22;14878;50.778;0.258;2022-12-05T18:10:47;7.60;99.90
27423;DHT22;14878;50.778;0.258;2022-12-05T18:11:48;7.50;99.90
27423;DHT22;14878;50.778;0.258;2022-12-05T18:12:49;7.50;99.90
27423;DHT22;14878;50.778;0.258;2022-12-05T18:13:50;7.50;99.90
27423;DHT22;14878;50.778;0.258;2022-12-05T18:14:51;7.60;99.90
27423;DHT22;14878;50.778;0.258;2022-12-05T18:15:55;7.60;99.90
27423;DHT22;14878;50.778;0.258;2022-12-05T18:16:57;7.60;99.90
27423;DHT22;14878;50.778;0.258;2022-12-05T18:17:57;7.60;99.90
27423;DHT22;14878;50.778;0.258;2022-12-05T18:18:58;7.70;99.90
27423;DHT22;14878;50.778;0.258;2022-12-05T18:19:59;7.60;99.90
27423;DHT22;14878;50.778;0.258;2022-12-05T18:21:11;7.50;99.90
27423;DHT22;14878;50.778;0.258;2022-12-05T18:22:12;7.60;99.90
27423;DHT22;14878;50.778;0.258;2022-12-05T18:23:12;7.50;99.90
27423;DHT22;14878;50.778;0.258;2022-12-05T18:24:13;7.50;99.90
27423;DHT22;14878;50.778;0.258;2022-12-05T18:25:14;7.50;99.90
27423;DHT22;14878;50.778;0.258;2022-12-05T18:26:14;7.60;99.90
27423;DHT22;14878;50.778;0.258;2022-12-05T18:27:15;7.50;99.90
27423;DHT22;14878;50.778;0.258;2022-12-05T18:28:16;7.60;99.90
27423;DHT22;14878;50.778;0.258;2022-12-05T18:29:17;7.50;99.90
27423;DHT22;14878;50.778;0.258;2022-12-05T18:30:17;7.50;99.90
27423;DHT22;14878;50.778;0.258;2022-12-05T18:31:18;7.50;99.90
27423;DHT22;14878;50.778;0.258;2022-12-05T18:32:19;7.50;99.90
27423;DHT22;14878;50.778;0.258;2022-12-05T18:33:20;7.50;99.90
27423;DHT22;14878;50.778;0.258;2022-12-05T18:34:20;7.50;99.90
27423;DHT22;14878;50.778;0.258;2022-12-05T18:35:21;7.50;99.90
27423;DHT22;14878;50.778;0.258;2022-12-05T18:36:39;7.50;99.90
27423;DHT22;14878;50.778;0.258;2022-12-05T18:37:40;7.60;99.90
27423;DHT22;14878;50.778;0.258;2022-12-05T18:38:41;7.60;99.90
27423;DHT22;14878;50.778;0.258;2022-12-05T18:39:44;7.60;99.90
27423;DHT22;14878;50.778;0.258;2022-12-05T18:40:45;7.60;99.90
27423;DHT22;14878;50.778;0.258;2022-12-05T18:41:46;7.50;99.90
27423;DHT22;14878;50.778;0.258;2022-12-05T18:42:46;7.60;99.90
27423;DHT22;14878;50.778;0.258;2022-12-05T18:43:47;7.60;99.90
27423;DHT22;14878;50.778;0.258;2022-12-05T18:44:48;7.60;99.90
27423;DHT22;14878;50.778;0.258;2022-12-05T18:45:56;7.70;99.90
27423;DHT22;14878;50.778;0.258;2022-12-05T18:46:57;8.40;99.90
27423;DHT22;14878;50.778;0.258;2022-12-05T18:47:58;7.60;99.90
27423;DHT22;14878;50.778;0.258;2022-12-05T18:48:59;7.60;99.90
27423;DHT22;14878;50.778;0.258;2022-12-05T18:50:00;7.60;99.90
27423;DHT22;14878;50.778;0.258;2022-12-05T18:51:13;7.60;99.90
27423;DHT22;14878;50.778;0.258;2022-12-05T18:52:14;7.60;99.90
27423;DHT22;14878;50.778;0.258;2022-12-05T18:53:15;7.50;99.90
27423;DHT22;14878;50.778;0.258;2022-12-05T18:54:16;7.50;99.90
27423;DHT22;14878;50.778;0.258;2022-12-05T18:55:17;7.50;99.90
27423;DHT22;14878;50.778;0.258;2022-12-05T18:56:23;7.40;99.90
27423;DHT22;14878;50.778;0.258;2022-12-05T18:57:23;7.50;99.90
27423;DHT22;14878;50.778;0.258;2022-12-05T18:58:24;7.50;99.90
27423;DHT22;14878;50.778;0.258;2022-12-05T18:59:25;7.50;99.90
27423;DHT22;14878;50.778;0.258;2022-12-05T19:00:27;7.50;99.90
27423;DHT22;14878;50.778;0.258;2022-12-05T19:01:29;7.50;99.90
27423;DHT22;14878;50.778;0.258;2022-12-05T19:02:30;7.50;99.90
27423;DHT22;14878;50.778;0.258;2022-12-05T19:03:32;7.50;99.90
27423;DHT22;14878;50.778;0.258;2022-12-05T19:04:33;7.50;99.90
27423;DHT22;14878;50.778;0.258;2022-12-05T19:05:34;7.50;99.90
27423;DHT22;14878;50.778;0.258;2022-12-05T19:06:35;7.60;99.90
27423;DHT22;14878;50.778;0.258;2022-12-05T19:07:36;7.70;99.90
27423;DHT22;14878;50.778;0.258;2022-12-05T19:08:37;7.60;99.90
27423;DHT22;14878;50.778;0.258;2022-12-05T19:09:37;7.50;99.90
27423;DHT22;14878;50.778;0.258;2022-12-05T19:10:38;7.60;99.90
27423;DHT22;14878;50.778;0.258;2022-12-05T19:11:40;7.60;99.90
27423;DHT22;14878;50.778;0.258;2022-12-05T19:12:41;7.60;99.90
27423;DHT22;14878;50.778;0.258;2022-12-05T19:13:42;7.60;99.90
27423;DHT22;14878;50.778;0.258;2022-12-05T19:14:43;7.60;99.90
27423;DHT22;14878;50.778;0.258;2022-12-05T19:15:44;7.60;99.90
27423;DHT22;14878;50.778;0.258;2022-12-05T19:16:46;7.70;99.90
27423;DHT22;14878;50.778;0.258;2022-12-05T19:17:47;7.70;99.90
27423;DHT22;14878;50.778;0.258;2022-12-05T19:18:54;7.60;99.90
27423;DHT22;14878;50.778;0.258;2022-12-05T19:19:55;7.60;99.90
27423;DHT22;14878;50.778;0.258;2022-12-05T19:20:58;7.60;99.90
27423;DHT22;14878;50.778;0.258;2022-12-05T19:21:58;7.60;99.90
27423;DHT22;14878;50.778;0.258;2022-12-05T19:23:00;7.70;99.90
27423;DHT22;14878;50.778;0.258;2022-12-05T19:24:03;7.70;99.90
27423;DHT22;14878;50.778;0.258;2022-12-05T19:25:04;7.60;99.90
27423;DHT22;14878;50.778;0.258;2022-12-05T19:26:06;7.60;99.90
27423;DHT22;14878;50.778;0.258;2022-12-05T19:27:07;7.60;99.90
27423;DHT22;14878;50.778;0.258;2022-12-05T19:28:08;7.60;99.90
27423;DHT22;14878;50.778;0.258;2022-12-05T19:29:11;7.60;99.90
27423;DHT22;14878;50.778;0.258;2022-12-05T19:30:12;7.60;99.90
27423;DHT22;14878;50.778;0.258;2022-12-05T19:31:19;7.60;99.90
27423;DHT22;14878;50.778;0.258;2022-12-05T19:32:20;7.60;99.90
27423;DHT22;14878;50.778;0.258;2022-12-05T19:33:20;7.60;99.90
27423;DHT22;14878;50.778;0.258;2022-12-05T19:34:21;7.60;99.90
27423;DHT22;14878;50.778;0.258;2022-12-05T19:35:23;6.80;99.90
27423;DHT22;14878;50.778;0.258;2022-12-05T19:36:29;7.60;99.90
27423;DHT22;14878;50.778;0.258;2022-12-05T19:37:31;7.60;99.90
27423;DHT22;14878;50.778;0.258;2022-12-05T19:38:35;7.60;99.90
27423;DHT22;14878;50.778;0.258;2022-12-05T19:39:36;7.60;99.90
27423;DHT22;14878;50.778;0.258;2022-12-05T19:40:36;7.60;99.90
27423;DHT22;14878;50.778;0.258;2022-12-05T19:41:37;7.50;99.90
27423;DHT22;14878;50.778;0.258;2022-12-05T19:42:38;7.50;99.90
27423;DHT22;14878;50.778;0.258;2022-12-05T19:43:39;7.60;99.90
27423;DHT22;14878;50.778;0.258;2022-12-05T19:44:39;7.60;99.90
27423;DHT22;14878;50.778;0.258;2022-12-05T19:45:40;7.60;99.90
27423;DHT22;14878;50.778;0.258;2022-12-05T19:46:41;7.60;99.90
27423;DHT22;14878;50.778;0.258;2022-12-05T19:47:42;7.70;99.90
27423;DHT22;14878;50.778;0.258;2022-12-05T19:48:42;7.70;99.90
27423;DHT22;14878;50.778;0.258;2022-12-05T19:49:43;7.70;99.90
27423;DHT22;14878;50.778;0.258;2022-12-05T19:50:44;7.60;99.90
27423;DHT22;14878;50.778;0.258;2022-12-05T19:51:51;7.60;99.90
27423;DHT22;14878;50.778;0.258;2022-12-05T19:52:52;7.70;99.90
27423;DHT22;14878;50.778;0.258;2022-12-05T19:53:52;7.60;99.90
27423;DHT22;14878;50.778;0.258;2022-12-05T19:54:53;7.50;99.90
27423;DHT22;14878;50.778;0.258;2022-12-05T19:56:06;7.50;99.90
27423;DHT22;14878;50.778;0.258;2022-12-05T19:57:08;7.60;99.90
27423;DHT22;14878;50.778;0.258;2022-12-05T19:58:08;7.60;99.90
27423;DHT22;14878;50.778;0.258;2022-12-05T19:59:12;7.70;99.90
27423;DHT22;14878;50.778;0.258;2022-12-05T20:00:14;7.60;99.90
27423;DHT22;14878;50.778;0.258;2022-12-05T20:01:36;7.60;99.90
27423;DHT22;14878;50.778;0.258;2022-12-05T20:02:36;7.60;99.90
27423;DHT22;14878;50.778;0.258;2022-12-05T20:03:37;7.50;99.90
27423;DHT22;14878;50.778;0.258;2022-12-05T20:04:38;7.50;99.90
27423;DHT22;14878;50.778;0.258;2022-12-05T20:05:39;7.50;99.90
27423;DHT22;14878;50.778;0.258;2022-12-05T20:06:42;7.50;99.90
27423;DHT22;14878;50.778;0.258;2022-12-05T20:07:43;7.50;99.90
27423;DHT22;14878;50.778;0.258;2022-12-05T20:08:44;7.50;99.90
27423;DHT22;14878;50.778;0.258;2022-12-05T20:09:45;7.40;99.90
27423;DHT22;14878;50.778;0.258;2022-12-05T20:10:45;7.40;99.90
27423;DHT22;14878;50.778;0.258;2022-12-05T20:11:47;7.40;99.90
27423;DHT22;14878;50.778;0.258;2022-12-05T20:12:51;7.40;99.90
27423;DHT22;14878;50.778;0.258;2022-12-05T20:13:53;7.40;99.90
27423;DHT22;14878;50.778;0.258;2022-12-05T20:14:54;7.40;99.90
27423;DHT22;14878;50.778;0.258;2022-12-05T20:16:04;7.50;99.90
27423;DHT22;14878;50.778;0.258;2022-12-05T20:17:05;7.40;99.90
27423;DHT22;14878;50.778;0.258;2022-12-05T20:18:06;7.40;99.90
27423;DHT22;14878;50.778;0.258;2022-12-05T20:19:06;7.50;99.90
27423;DHT22;14878;50.778;0.258;2022-12-05T20:20:08;7.40;99.90
27423;DHT22;14878;50.778;0.258;2022-12-05T20:21:11;7.50;99.90
27423;DHT22;14878;50.778;0.258;2022-12-05T20:22:12;7.50;99.90
27423;DHT22;14878;50.778;0.258;2022-12-05T20:23:12;7.40;99.90
27423;DHT22;14878;50.778;0.258;2022-12-05T20:24:13;7.50;99.90
27423;DHT22;14878;50.778;0.258;2022-12-05T20:25:14;7.40;99.90
27423;DHT22;14878;50.778;0.258;2022-12-05T20:26:18;7.40;99.90
27423;DHT22;14878;50.778;0.258;2022-12-05T20:27:19;7.40;99.90
27423;DHT22;14878;50.778;0.258;2022-12-05T20:28:20;7.40;99.90
27423;DHT22;14878;50.778;0.258;2022-12-05T20:29:21;7.40;99.90
27423;DHT22;14878;50.778;0.258;2022-12-05T20:30:22;7.50;99.90
27423;DHT22;14878;50.778;0.258;2022-12-05T20:31:25;7.50;99.90
27423;DHT22;14878;50.778;0.258;2022-12-05T20:32:26;7.40;99.90
27423;DHT22;14878;50.778;0.258;2022-12-05T20:33:28;7.50;99.90
27423;DHT22;14878;50.778;0.258;2022-12-05T20:34:28;7.50;99.90
27423;DHT22;14878;50.778;0.258;2022-12-05T20:35:29;7.50;99.90
27423;DHT22;14878;50.778;0.258;2022-12-05T20:36:31;7.50;99.90
27423;DHT22;14878;50.778;0.258;2022-12-05T20:37:32;7.50;99.90
27423;DHT22;14878;50.778;0.258;2022-12-05T20:38:33;7.60;99.90
27423;DHT22;14878;50.778;0.258;2022-12-05T20:39:34;7.60;99.90
27423;DHT22;14878;50.778;0.258;2022-12-05T20:40:35;7.60;99.90
27423;DHT22;14878;50.778;0.258;2022-12-05T20:41:35;7.60;99.90
27423;DHT22;14878;50.778;0.258;2022-12-05T20:42:37;7.50;99.90
27423;DHT22;14878;50.778;0.258;2022-12-05T20:43:37;7.50;99.90
27423;DHT22;14878;50.778;0.258;2022-12-05T20:44:38;7.60;99.90
27423;DHT22;14878;50.778;0.258;2022-12-05T20:45:39;7.60;99.90
27423;DHT22;14878;50.778;0.258;2022-12-05T20:46:39;7.60;99.90
27423;DHT22;14878;50.778;0.258;2022-12-05T20:47:40;7.50;99.90
27423;DHT22;14878;50.778;0.258;2022-12-05T20:48:42;7.60;99.90
27423;DHT22;14878;50.778;0.258;2022-12-05T20:49:42;7.60;99.90
27423;DHT22;14878;50.778;0.258;2022-12-05T20:50:43;7.60;99.90
27423;DHT22;14878;50.778;0.258;2022-12-05T20:51:45;7.60;99.90
27423;DHT22;14878;50.778;0.258;2022-12-05T20:52:46;7.70;99.90
27423;DHT22;14878;50.778;0.258;2022-12-05T20:53:46;7.70;99.90
27423;DHT22;14878;50.778;0.258;2022-12-05T20:54:47;7.70;99.90
27423;DHT22;14878;50.778;0.258;2022-12-05T20:55:48;7.70;99.90
27423;DHT22;14878;50.778;0.258;2022-12-05T20:56:49;7.70;99.90
27423;DHT22;14878;50.778;0.258;2022-12-05T20:57:49;7.60;99.90
27423;DHT22;14878;50.778;0.258;2022-12-05T20:58:52;7.60;99.90
27423;DHT22;14878;50.778;0.258;2022-12-05T20:59:53;7.70;99.90
27423;DHT22;14878;50.778;0.258;2022-12-05T21:00:58;7.80;99.90
27423;DHT22;14878;50.778;0.258;2022-12-05T21:01:59;7.70;99.90
27423;DHT22;14878;50.778;0.258;2022-12-05T21:02:59;7.70;99.90
27423;DHT22;14878;50.778;0.258;2022-12-05T21:04:01;7.80;99.90
27423;DHT22;14878;50.778;0.258;2022-12-05T21:05:02;7.70;99.90
27423;DHT22;14878;50.778;0.258;2022-12-05T21:06:07;7.70;99.90
27423;DHT22;14878;50.778;0.258;2022-12-05T21:07:08;7.80;99.90
27423;DHT22;14878;50.778;0.258;2022-12-05T21:08:09;7.70;99.90
27423;DHT22;14878;50.778;0.258;2022-12-05T21:09:10;7.70;99.90
27423;DHT22;14878;50.778;0.258;2022-12-05T21:10:15;7.70;99.90
27423;DHT22;14878;50.778;0.258;2022-12-05T21:11:16;7.70;99.90
27423;DHT22;14878;50.778;0.258;2022-12-05T21:12:16;7.70;99.90
27423;DHT22;14878;50.778;0.258;2022-12-05T21:13:18;7.70;99.90
27423;DHT22;14878;50.778;0.258;2022-12-05T21:14:19;7.70;99.90
27423;DHT22;14878;50.778;0.258;2022-12-05T21:15:20;7.70;99.90
27423;DHT22;14878;50.778;0.258;2022-12-05T21:16:21;7.60;99.90